sensor_id;sensor_type;location;lat;lon;timestamp;temperature;humidity
2647;DHT22;1333;50.958;6.770;2023-01-08T00:01:09;11.20;99.90
2647;DHT22;1333;50.958;6.770;2023-01-08T00:03:35;11.20;99.90
2647;DHT22;1333;50.958;6.770;2023-01-08T00:06:02;11.20;99.90
2647;DHT22;1333;50.958;6.770;2023-01-08T00:08:29;11.30;99.90
2647;DHT22;1333;50.958;6.770;2023-01-08T00:10:55;11.30;99.90
2647;DHT22;1333;50.958;6.770;2023-01-08T00:13:21;11.20;99.90
2647;DHT22;1333;50.958;6.770;2023-01-08T00:15:47;11.20;99.90
2647;DHT22;1333;50.958;6.770;2023-01-08T00:18:12;11.20;99.90
2647;DHT22;1333;50.958;6.770;2023-01-08T00:20:42;11.30;99.90
2647;DHT22;1333;50.958;6.770;2023-01-08T00:23:14;11.20;99.90
2647;DHT22;1333;50.958;6.770;2023-01-08T00:25:40;11.20;99.90
2647;DHT22;1333;50.958;6.770;2023-01-08T00:28:05;11.10;99.90
2647;DHT22;1333;50.958;6.770;2023-01-08T00:30:31;11.10;99.90
2647;DHT22;1333;50.958;6.770;2023-01-08T00:32:57;11.10;99.90
2647;DHT22;1333;50.958;6.770;2023-01-08T00:35:22;11.10;99.90
2647;DHT22;1333;50.958;6.770;2023-01-08T00:37:48;11.10;99.90
2647;DHT22;1333;50.958;6.770;2023-01-08T00:40:14;11.10;99.90
2647;DHT22;1333;50.958;6.770;2023-01-08T00:42:39;11.10;99.90
2647;DHT22;1333;50.958;6.770;2023-01-08T00:45:05;11.10;99.90
2647;DHT22;1333;50.958;6.770;2023-01-08T00:47:31;11.20;99.90
2647;DHT22;1333;50.958;6.770;2023-01-08T00:49:57;11.20;99.90
2647;DHT22;1333;50.958;6.770;2023-01-08T00:52:22;11.10;99.90
2647;DHT22;1333;50.958;6.770;2023-01-08T00:54:48;11.10;99.90
2647;DHT22;1333;50.958;6.770;2023-01-08T00:57:13;11.10;99.90
2647;DHT22;1333;50.958;6.770;2023-01-08T00:59:39;11.10;99.90
2647;DHT22;1333;50.958;6.770;2023-01-08T01:02:04;11.10;99.90
2647;DHT22;1333;50.958;6.770;2023-01-08T01:04:30;11.20;99.90
2647;DHT22;1333;50.958;6.770;2023-01-08T01:06:55;11.20;99.90
2647;DHT22;1333;50.958;6.770;2023-01-08T01:09:21;11.30;99.90
2647;DHT22;1333;50.958;6.770;2023-01-08T01:11:46;11.30;99.90
2647;DHT22;1333;50.958;6.770;2023-01-08T01:14:12;11.40;99.90
2647;DHT22;1333;50.958;6.770;2023-01-08T01:16:37;11.40;99.90
2647;DHT22;1333;50.958;6.770;2023-01-08T01:19:04;11.40;99.90
2647;DHT22;1333;50.958;6.770;2023-01-08T01:21:31;11.30;99.90
2647;DHT22;1333;50.958;6.770;2023-01-08T01:23:59;11.40;99.90
2647;DHT22;1333;50.958;6.770;2023-01-08T01:26:25;11.40;99.90
2647;DHT22;1333;50.958;6.770;2023-01-08T01:28:53;11.40;99.90
2647;DHT22;1333;50.958;6.770;2023-01-08T01:31:19;11.40;99.90
2647;DHT22;1333;50.958;6.770;2023-01-08T01:33:46;11.40;99.90
2647;DHT22;1333;50.958;6.770;2023-01-08T01:36:12;11.20;99.90
2647;DHT22;1333;50.958;6.770;2023-01-08T01:38:42;11.30;99.90
2647;DHT22;1333;50.958;6.770;2023-01-08T01:41:30;11.30;99.90
2647;DHT22;1333;50.958;6.770;2023-01-08T01:43:58;11.40;99.90
2647;DHT22;1333;50.958;6.770;2023-01-08T01:46:38;11.40;99.90
2647;DHT22;1333;50.958;6.770;2023-01-08T01:49:24;11.40;99.90
2647;DHT22;1333;50.958;6.770;2023-01-08T01:51:55;11.50;99.90
2647;DHT22;1333;50.958;6.770;2023-01-08T01:54:21;11.50;99.90
2647;DHT22;1333;50.958;6.770;2023-01-08T01:56:48;11.50;99.90
2647;DHT22;1333;50.958;6.770;2023-01-08T01:59:14;11.50;99.90
2647;DHT22;1333;50.958;6.770;2023-01-08T02:01:41;11.50;99.90
2647;DHT22;1333;50.958;6.770;2023-01-08T02:04:11;11.50;99.90
2647;DHT22;1333;50.958;6.770;2023-01-08T02:09:16;11.60;99.90
2647;DHT22;1333;50.958;6.770;2023-01-08T02:12:04;11.60;99.90
2647;DHT22;1333;50.958;6.770;2023-01-08T02:17:19;11.50;99.90
2647;DHT22;1333;50.958;6.770;2023-01-08T02:19:56;11.50;99.90
2647;DHT22;1333;50.958;6.770;2023-01-08T02:22:40;11.50;99.90
2647;DHT22;1333;50.958;6.770;2023-01-08T02:28:00;11.50;99.90
2647;DHT22;1333;50.958;6.770;2023-01-08T02:30:26;11.40;99.90
2647;DHT22;1333;50.958;6.770;2023-01-08T02:32:52;11.30;99.90
2647;DHT22;1333;50.958;6.770;2023-01-08T02:35:18;11.30;99.90
2647;DHT22;1333;50.958;6.770;2023-01-08T02:37:43;11.10;99.90
2647;DHT22;1333;50.958;6.770;2023-01-08T02:40:29;11.20;99.90
2647;DHT22;1333;50.958;6.770;2023-01-08T02:45:53;10.90;99.90
2647;DHT22;1333;50.958;6.770;2023-01-08T02:48:35;10.90;99.90
2647;DHT22;1333;50.958;6.770;2023-01-08T02:51:24;10.90;99.90
2647;DHT22;1333;50.958;6.770;2023-01-08T02:54:01;10.80;99.90
2647;DHT22;1333;50.958;6.770;2023-01-08T02:56:31;10.80;99.90
2647;DHT22;1333;50.958;6.770;2023-01-08T02:58:58;10.90;99.90
2647;DHT22;1333;50.958;6.770;2023-01-08T03:01:26;10.80;99.90
2647;DHT22;1333;50.958;6.770;2023-01-08T03:03:55;10.80;99.90
2647;DHT22;1333;50.958;6.770;2023-01-08T03:06:22;10.80;99.90
2647;DHT22;1333;50.958;6.770;2023-01-08T03:08:51;10.80;99.90
2647;DHT22;1333;50.958;6.770;2023-01-08T03:11:19;10.90;99.90
2647;DHT22;1333;50.958;6.770;2023-01-08T03:14:06;10.70;99.90
2647;DHT22;1333;50.958;6.770;2023-01-08T03:16:40;10.80;99.90
2647;DHT22;1333;50.958;6.770;2023-01-08T03:19:20;10.80;99.90
2647;DHT22;1333;50.958;6.770;2023-01-08T03:21:48;10.80;99.90
2647;DHT22;1333;50.958;6.770;2023-01-08T03:24:18;10.80;99.90
2647;DHT22;1333;50.958;6.770;2023-01-08T03:26:45;10.80;99.90
2647;DHT22;1333;50.958;6.770;2023-01-08T03:29:14;10.80;99.90
2647;DHT22;1333;50.958;6.770;2023-01-08T03:31:42;10.80;99.90
2647;DHT22;1333;50.958;6.770;2023-01-08T03:34:10;10.80;99.90
2647;DHT22;1333;50.958;6.770;2023-01-08T03:36:36;10.90;99.90
2647;DHT22;1333;50.958;6.770;2023-01-08T03:39:27;10.70;99.90
2647;DHT22;1333;50.958;6.770;2023-01-08T03:41:57;10.80;99.90
2647;DHT22;1333;50.958;6.770;2023-01-08T03:44:23;10.80;99.90
2647;DHT22;1333;50.958;6.770;2023-01-08T03:46:52;10.80;99.90
2647;DHT22;1333;50.958;6.770;2023-01-08T03:49:20;10.80;99.90
2647;DHT22;1333;50.958;6.770;2023-01-08T03:51:46;10.80;99.90
2647;DHT22;1333;50.958;6.770;2023-01-08T03:54:15;10.80;99.90
2647;DHT22;1333;50.958;6.770;2023-01-08T03:56:41;10.80;99.90
2647;DHT22;1333;50.958;6.770;2023-01-08T03:59:07;10.80;99.90
2647;DHT22;1333;50.958;6.770;2023-01-08T04:01:33;10.80;99.90
2647;DHT22;1333;50.958;6.770;2023-01-08T04:03:58;10.80;99.90
2647;DHT22;1333;50.958;6.770;2023-01-08T04:06:24;10.80;99.90
2647;DHT22;1333;50.958;6.770;2023-01-08T04:08:49;10.80;99.90
2647;DHT22;1333;50.958;6.770;2023-01-08T04:11:15;10.90;99.90
2647;DHT22;1333;50.958;6.770;2023-01-08T04:13:40;11.00;99.90
2647;DHT22;1333;50.958;6.770;2023-01-08T04:16:06;11.10;99.90
2647;DHT22;1333;50.958;6.770;2023-01-08T04:18:32;11.00;99.90
2647;DHT22;1333;50.958;6.770;2023-01-08T04:20:58;11.00;99.90
2647;DHT22;1333;50.958;6.770;2023-01-08T04:23:24;11.10;99.90
2647;DHT22;1333;50.958;6.770;2023-01-08T04:25:50;11.00;99.90
2647;DHT22;1333;50.958;6.770;2023-01-08T04:28:16;11.00;99.90
2647;DHT22;1333;50.958;6.770;2023-01-08T04:30:41;11.00;99.90
2647;DHT22;1333;50.958;6.770;2023-01-08T04:33:07;11.00;99.90
2647;DHT22;1333;50.958;6.770;2023-01-08T04:35:32;11.00;99.90
2647;DHT22;1333;50.958;6.770;2023-01-08T04:37:58;11.00;99.90
2647;DHT22;1333;50.958;6.770;2023-01-08T04:40:23;11.10;99.90
2647;DHT22;1333;50.958;6.770;2023-01-08T04:42:49;11.00;99.90
2647;DHT22;1333;50.958;6.770;2023-01-08T04:45:15;11.10;99.90
2647;DHT22;1333;50.958;6.770;2023-01-08T04:47:41;11.00;99.90
2647;DHT22;1333;50.958;6.770;2023-01-08T04:50:06;11.10;99.90
2647;DHT22;1333;50.958;6.770;2023-01-08T04:52:32;11.10;99.90
2647;DHT22;1333;50.958;6.770;2023-01-08T04:54:57;11.10;99.90
2647;DHT22;1333;50.958;6.770;2023-01-08T04:57:23;11.00;99.90
2647;DHT22;1333;50.958;6.770;2023-01-08T04:59:48;10.90;99.90
2647;DHT22;1333;50.958;6.770;2023-01-08T05:02:14;10.90;99.90
2647;DHT22;1333;50.958;6.770;2023-01-08T05:04:39;11.00;99.90
2647;DHT22;1333;50.958;6.770;2023-01-08T05:07:05;11.10;99.90
2647;DHT22;1333;50.958;6.770;2023-01-08T05:09:32;11.10;99.90
2647;DHT22;1333;50.958;6.770;2023-01-08T05:11:57;11.00;99.90
2647;DHT22;1333;50.958;6.770;2023-01-08T05:14:23;10.90;99.90
2647;DHT22;1333;50.958;6.770;2023-01-08T05:16:48;10.90;99.90
2647;DHT22;1333;50.958;6.770;2023-01-08T05:19:14;10.90;99.90
2647;DHT22;1333;50.958;6.770;2023-01-08T05:21:40;10.80;99.90
2647;DHT22;1333;50.958;6.770;2023-01-08T05:24:05;10.80;99.90
2647;DHT22;1333;50.958;6.770;2023-01-08T05:26:32;10.80;99.90
2647;DHT22;1333;50.958;6.770;2023-01-08T05:28:58;10.90;99.90
2647;DHT22;1333;50.958;6.770;2023-01-08T05:31:23;10.90;99.90
2647;DHT22;1333;50.958;6.770;2023-01-08T05:33:49;10.80;99.90
2647;DHT22;1333;50.958;6.770;2023-01-08T05:36:15;10.70;99.90
2647;DHT22;1333;50.958;6.770;2023-01-08T05:38:41;10.60;99.90
2647;DHT22;1333;50.958;6.770;2023-01-08T05:41:06;10.70;99.90
2647;DHT22;1333;50.958;6.770;2023-01-08T05:43:32;10.60;99.90
2647;DHT22;1333;50.958;6.770;2023-01-08T05:45:58;10.60;99.90
2647;DHT22;1333;50.958;6.770;2023-01-08T05:48:28;10.60;99.90
2647;DHT22;1333;50.958;6.770;2023-01-08T05:50:55;10.50;99.90
2647;DHT22;1333;50.958;6.770;2023-01-08T05:53:20;10.50;99.90
2647;DHT22;1333;50.958;6.770;2023-01-08T05:55:46;10.40;99.90
2647;DHT22;1333;50.958;6.770;2023-01-08T05:58:11;10.30;99.90
2647;DHT22;1333;50.958;6.770;2023-01-08T06:00:38;10.30;99.90
2647;DHT22;1333;50.958;6.770;2023-01-08T06:03:04;10.30;99.90
2647;DHT22;1333;50.958;6.770;2023-01-08T06:05:30;10.30;99.90
2647;DHT22;1333;50.958;6.770;2023-01-08T06:07:57;10.20;99.90
2647;DHT22;1333;50.958;6.770;2023-01-08T06:10:23;10.30;99.90
2647;DHT22;1333;50.958;6.770;2023-01-08T06:12:48;10.30;99.90
2647;DHT22;1333;50.958;6.770;2023-01-08T06:15:14;10.20;99.90
2647;DHT22;1333;50.958;6.770;2023-01-08T06:17:40;10.20;99.90
2647;DHT22;1333;50.958;6.770;2023-01-08T06:20:06;10.10;99.90
2647;DHT22;1333;50.958;6.770;2023-01-08T06:22:32;10.20;99.90
2647;DHT22;1333;50.958;6.770;2023-01-08T06:24:58;10.20;99.90
2647;DHT22;1333;50.958;6.770;2023-01-08T06:27:23;10.30;99.90
2647;DHT22;1333;50.958;6.770;2023-01-08T06:29:49;10.30;99.90
2647;DHT22;1333;50.958;6.770;2023-01-08T06:32:14;10.40;99.90
2647;DHT22;1333;50.958;6.770;2023-01-08T06:34:40;10.40;99.90
2647;DHT22;1333;50.958;6.770;2023-01-08T06:37:05;10.50;99.90
2647;DHT22;1333;50.958;6.770;2023-01-08T06:39:31;10.50;99.90
2647;DHT22;1333;50.958;6.770;2023-01-08T06:41:56;10.60;99.90
2647;DHT22;1333;50.958;6.770;2023-01-08T06:44:22;10.60;99.90
2647;DHT22;1333;50.958;6.770;2023-01-08T06:46:47;10.60;99.90
2647;DHT22;1333;50.958;6.770;2023-01-08T06:49:13;10.60;99.90
2647;DHT22;1333;50.958;6.770;2023-01-08T06:51:39;10.60;99.90
2647;DHT22;1333;50.958;6.770;2023-01-08T06:54:05;10.60;99.90
2647;DHT22;1333;50.958;6.770;2023-01-08T06:56:30;10.40;99.90
2647;DHT22;1333;50.958;6.770;2023-01-08T06:58:56;10.30;99.90
2647;DHT22;1333;50.958;6.770;2023-01-08T07:01:21;10.10;99.90
2647;DHT22;1333;50.958;6.770;2023-01-08T07:03:47;9.90;99.90
2647;DHT22;1333;50.958;6.770;2023-01-08T07:06:19;9.80;99.90
2647;DHT22;1333;50.958;6.770;2023-01-08T07:08:45;9.70;99.90
2647;DHT22;1333;50.958;6.770;2023-01-08T07:11:11;9.60;99.90
2647;DHT22;1333;50.958;6.770;2023-01-08T07:13:36;9.50;99.90
2647;DHT22;1333;50.958;6.770;2023-01-08T07:16:10;9.30;99.90
2647;DHT22;1333;50.958;6.770;2023-01-08T07:18:37;9.30;99.90
2647;DHT22;1333;50.958;6.770;2023-01-08T07:21:04;9.30;99.90
2647;DHT22;1333;50.958;6.770;2023-01-08T07:23:29;9.20;99.90
2647;DHT22;1333;50.958;6.770;2023-01-08T07:25:59;9.20;99.90
2647;DHT22;1333;50.958;6.770;2023-01-08T07:28:24;9.10;99.90
2647;DHT22;1333;50.958;6.770;2023-01-08T07:30:50;9.20;99.90
2647;DHT22;1333;50.958;6.770;2023-01-08T07:33:15;9.10;99.90
2647;DHT22;1333;50.958;6.770;2023-01-08T07:35:41;9.10;99.90
2647;DHT22;1333;50.958;6.770;2023-01-08T07:38:06;9.10;99.90
2647;DHT22;1333;50.958;6.770;2023-01-08T07:40:32;9.10;99.90
2647;DHT22;1333;50.958;6.770;2023-01-08T07:43:03;9.10;99.90
2647;DHT22;1333;50.958;6.770;2023-01-08T07:45:29;9.10;99.90
2647;DHT22;1333;50.958;6.770;2023-01-08T07:47:58;9.10;99.90
2647;DHT22;1333;50.958;6.770;2023-01-08T07:50:25;9.10;99.90
2647;DHT22;1333;50.958;6.770;2023-01-08T07:52:50;9.20;99.90
2647;DHT22;1333;50.958;6.770;2023-01-08T07:55:16;9.20;99.90
2647;DHT22;1333;50.958;6.770;2023-01-08T07:57:41;9.30;99.90
2647;DHT22;1333;50.958;6.770;2023-01-08T08:00:07;9.40;99.90
2647;DHT22;1333;50.958;6.770;2023-01-08T08:02:33;9.50;99.90
2647;DHT22;1333;50.958;6.770;2023-01-08T08:04:59;9.60;99.90
2647;DHT22;1333;50.958;6.770;2023-01-08T08:07:24;9.60;99.90
2647;DHT22;1333;50.958;6.770;2023-01-08T08:09:50;9.60;99.90
2647;DHT22;1333;50.958;6.770;2023-01-08T08:12:15;9.60;99.90
2647;DHT22;1333;50.958;6.770;2023-01-08T08:14:41;9.60;99.90
2647;DHT22;1333;50.958;6.770;2023-01-08T08:17:06;9.50;99.90
2647;DHT22;1333;50.958;6.770;2023-01-08T08:19:32;9.50;99.90
2647;DHT22;1333;50.958;6.770;2023-01-08T08:21:57;9.60;99.90
2647;DHT22;1333;50.958;6.770;2023-01-08T08:24:23;9.50;99.90
2647;DHT22;1333;50.958;6.770;2023-01-08T08:26:49;9.50;99.90
2647;DHT22;1333;50.958;6.770;2023-01-08T08:29:15;9.60;99.90
2647;DHT22;1333;50.958;6.770;2023-01-08T08:31:41;9.70;99.90
2647;DHT22;1333;50.958;6.770;2023-01-08T08:34:07;9.60;99.90
2647;DHT22;1333;50.958;6.770;2023-01-08T08:36:32;9.60;99.90
2647;DHT22;1333;50.958;6.770;2023-01-08T08:38:58;9.70;99.90
2647;DHT22;1333;50.958;6.770;2023-01-08T08:41:23;9.70;99.90
2647;DHT22;1333;50.958;6.770;2023-01-08T08:43:49;9.70;99.90
2647;DHT22;1333;50.958;6.770;2023-01-08T08:46:16;9.80;99.90
2647;DHT22;1333;50.958;6.770;2023-01-08T08:48:43;9.70;99.90
2647;DHT22;1333;50.958;6.770;2023-01-08T08:51:09;9.50;99.90
2647;DHT22;1333;50.958;6.770;2023-01-08T08:53:35;9.60;99.90
2647;DHT22;1333;50.958;6.770;2023-01-08T08:56:00;9.50;99.90
2647;DHT22;1333;50.958;6.770;2023-01-08T08:58:26;9.40;99.90
2647;DHT22;1333;50.958;6.770;2023-01-08T09:00:51;9.50;99.90
2647;DHT22;1333;50.958;6.770;2023-01-08T09:03:17;9.50;99.90
2647;DHT22;1333;50.958;6.770;2023-01-08T09:05:43;9.50;99.90
2647;DHT22;1333;50.958;6.770;2023-01-08T09:08:10;9.70;99.90
2647;DHT22;1333;50.958;6.770;2023-01-08T09:10:36;9.80;99.90
2647;DHT22;1333;50.958;6.770;2023-01-08T09:13:02;10.00;99.90
2647;DHT22;1333;50.958;6.770;2023-01-08T09:15:28;10.00;99.90
2647;DHT22;1333;50.958;6.770;2023-01-08T09:17:55;10.10;99.90
2647;DHT22;1333;50.958;6.770;2023-01-08T09:20:21;10.20;99.90
2647;DHT22;1333;50.958;6.770;2023-01-08T09:22:47;10.20;99.90
2647;DHT22;1333;50.958;6.770;2023-01-08T09:25:13;10.30;99.90
2647;DHT22;1333;50.958;6.770;2023-01-08T09:27:39;11.10;99.90
2647;DHT22;1333;50.958;6.770;2023-01-08T09:30:05;12.70;99.90
2647;DHT22;1333;50.958;6.770;2023-01-08T09:32:30;14.70;99.90
2647;DHT22;1333;50.958;6.770;2023-01-08T09:34:56;16.20;99.90
2647;DHT22;1333;50.958;6.770;2023-01-08T09:37:21;17.60;99.90
2647;DHT22;1333;50.958;6.770;2023-01-08T09:39:51;18.80;99.90
2647;DHT22;1333;50.958;6.770;2023-01-08T09:42:21;19.30;94.60
2647;DHT22;1333;50.958;6.770;2023-01-08T09:44:49;19.50;90.20
2647;DHT22;1333;50.958;6.770;2023-01-08T09:47:26;20.30;90.40
2647;DHT22;1333;50.958;6.770;2023-01-08T09:49:58;21.10;83.50
2647;DHT22;1333;50.958;6.770;2023-01-08T09:52:25;21.50;77.30
2647;DHT22;1333;50.958;6.770;2023-01-08T09:54:51;21.80;72.60
2647;DHT22;1333;50.958;6.770;2023-01-08T09:57:19;20.90;71.60
2647;DHT22;1333;50.958;6.770;2023-01-08T09:59:45;20.50;70.60
2647;DHT22;1333;50.958;6.770;2023-01-08T10:02:20;20.00;73.60
2647;DHT22;1333;50.958;6.770;2023-01-08T10:04:54;20.30;74.90
2647;DHT22;1333;50.958;6.770;2023-01-08T10:07:25;20.70;72.90
2647;DHT22;1333;50.958;6.770;2023-01-08T10:09:52;21.30;73.10
2647;DHT22;1333;50.958;6.770;2023-01-08T10:12:37;21.70;71.20
2647;DHT22;1333;50.958;6.770;2023-01-08T10:15:05;21.60;65.40
2647;DHT22;1333;50.958;6.770;2023-01-08T10:17:40;22.20;68.20
2647;DHT22;1333;50.958;6.770;2023-01-08T10:22:41;23.20;64.30
2647;DHT22;1333;50.958;6.770;2023-01-08T10:25:17;24.00;60.30
2647;DHT22;1333;50.958;6.770;2023-01-08T10:28:00;25.00;59.20
2647;DHT22;1333;50.958;6.770;2023-01-08T10:30:35;25.50;55.00
2647;DHT22;1333;50.958;6.770;2023-01-08T10:33:17;24.60;53.30
2647;DHT22;1333;50.958;6.770;2023-01-08T10:35:54;22.50;52.80
2647;DHT22;1333;50.958;6.770;2023-01-08T10:38:33;20.60;55.80
2647;DHT22;1333;50.958;6.770;2023-01-08T10:41:03;19.90;59.60
2647;DHT22;1333;50.958;6.770;2023-01-08T10:43:33;19.60;60.70
2647;DHT22;1333;50.958;6.770;2023-01-08T10:48:53;19.60;65.10
2647;DHT22;1333;50.958;6.770;2023-01-08T10:51:21;20.10;65.60
2647;DHT22;1333;50.958;6.770;2023-01-08T10:53:51;21.90;65.20
2647;DHT22;1333;50.958;6.770;2023-01-08T10:56:25;24.00;62.10
2647;DHT22;1333;50.958;6.770;2023-01-08T10:58:51;24.90;57.20
2647;DHT22;1333;50.958;6.770;2023-01-08T11:01:24;24.00;55.10
2647;DHT22;1333;50.958;6.770;2023-01-08T11:03:52;23.30;55.80
2647;DHT22;1333;50.958;6.770;2023-01-08T11:06:22;22.70;56.20
2647;DHT22;1333;50.958;6.770;2023-01-08T11:08:56;22.20;56.50
2647;DHT22;1333;50.958;6.770;2023-01-08T11:11:22;21.70;56.70
2647;DHT22;1333;50.958;6.770;2023-01-08T11:16:20;20.60;58.30
2647;DHT22;1333;50.958;6.770;2023-01-08T11:18:49;19.10;59.50
2647;DHT22;1333;50.958;6.770;2023-01-08T11:21:27;17.90;62.90
2647;DHT22;1333;50.958;6.770;2023-01-08T11:24:02;17.00;66.90
2647;DHT22;1333;50.958;6.770;2023-01-08T11:26:29;16.10;73.20
2647;DHT22;1333;50.958;6.770;2023-01-08T11:29:05;15.50;84.30
2647;DHT22;1333;50.958;6.770;2023-01-08T11:32:07;15.20;91.50
2647;DHT22;1333;50.958;6.770;2023-01-08T11:35:23;14.70;97.70
2647;DHT22;1333;50.958;6.770;2023-01-08T11:39:51;14.00;99.90
2647;DHT22;1333;50.958;6.770;2023-01-08T11:42:40;13.80;99.90
2647;DHT22;1333;50.958;6.770;2023-01-08T11:45:30;13.60;99.90
2647;DHT22;1333;50.958;6.770;2023-01-08T11:48:16;13.70;99.90
2647;DHT22;1333;50.958;6.770;2023-01-08T11:51:05;13.60;99.90
2647;DHT22;1333;50.958;6.770;2023-01-08T11:53:46;13.50;99.90
2647;DHT22;1333;50.958;6.770;2023-01-08T12:09:42;14.00;99.90
2647;DHT22;1333;50.958;6.770;2023-01-08T12:12:45;13.80;99.90
2647;DHT22;1333;50.958;6.770;2023-01-08T12:21:24;13.50;99.90
2647;DHT22;1333;50.958;6.770;2023-01-08T12:24:58;13.20;99.90
2647;DHT22;1333;50.958;6.770;2023-01-08T12:30:14;13.20;99.90
2647;DHT22;1333;50.958;6.770;2023-01-08T12:32:49;13.10;99.90
2647;DHT22;1333;50.958;6.770;2023-01-08T12:35:35;13.00;99.90
2647;DHT22;1333;50.958;6.770;2023-01-08T12:38:06;12.80;99.90
2647;DHT22;1333;50.958;6.770;2023-01-08T12:40:44;12.70;99.90
2647;DHT22;1333;50.958;6.770;2023-01-08T12:43:22;12.60;99.90
2647;DHT22;1333;50.958;6.770;2023-01-08T12:45:51;12.60;99.90
2647;DHT22;1333;50.958;6.770;2023-01-08T12:48:28;12.60;99.90
2647;DHT22;1333;50.958;6.770;2023-01-08T12:59:49;12.60;99.90
2647;DHT22;1333;50.958;6.770;2023-01-08T13:05:11;17.70;99.90
2647;DHT22;1333;50.958;6.770;2023-01-08T13:07:45;20.30;99.90
2647;DHT22;1333;50.958;6.770;2023-01-08T13:12:55;21.70;69.70
2647;DHT22;1333;50.958;6.770;2023-01-08T13:15:24;20.60;68.80
2647;DHT22;1333;50.958;6.770;2023-01-08T13:17:55;20.20;70.60
2647;DHT22;1333;50.958;6.770;2023-01-08T13:20:26;19.70;68.20
2647;DHT22;1333;50.958;6.770;2023-01-08T13:22:54;18.70;69.20
2647;DHT22;1333;50.958;6.770;2023-01-08T13:27:46;18.10;68.00
2647;DHT22;1333;50.958;6.770;2023-01-08T13:35:47;16.30;79.60
2647;DHT22;1333;50.958;6.770;2023-01-08T13:38:15;15.40;83.30
2647;DHT22;1333;50.958;6.770;2023-01-08T13:43:35;15.00;97.50
2647;DHT22;1333;50.958;6.770;2023-01-08T13:48:36;15.50;96.60
2647;DHT22;1333;50.958;6.770;2023-01-08T13:51:02;15.40;96.20
2647;DHT22;1333;50.958;6.770;2023-01-08T13:53:28;15.10;96.60
2647;DHT22;1333;50.958;6.770;2023-01-08T13:55:58;14.40;97.30
2647;DHT22;1333;50.958;6.770;2023-01-08T13:58:26;13.80;99.90
2647;DHT22;1333;50.958;6.770;2023-01-08T14:00:54;13.50;99.90
2647;DHT22;1333;50.958;6.770;2023-01-08T14:03:24;13.00;99.90
2647;DHT22;1333;50.958;6.770;2023-01-08T14:05:50;12.60;99.90
2647;DHT22;1333;50.958;6.770;2023-01-08T14:08:23;12.30;99.90
2647;DHT22;1333;50.958;6.770;2023-01-08T14:10:50;12.10;99.90
2647;DHT22;1333;50.958;6.770;2023-01-08T14:13:17;12.10;99.90
2647;DHT22;1333;50.958;6.770;2023-01-08T14:15:45;12.10;99.90
2647;DHT22;1333;50.958;6.770;2023-01-08T14:18:12;11.90;99.90
2647;DHT22;1333;50.958;6.770;2023-01-08T14:20:40;11.90;99.90
2647;DHT22;1333;50.958;6.770;2023-01-08T14:23:11;11.70;99.90
2647;DHT22;1333;50.958;6.770;2023-01-08T14:25:39;11.60;99.90
2647;DHT22;1333;50.958;6.770;2023-01-08T14:28:05;11.50;99.90
2647;DHT22;1333;50.958;6.770;2023-01-08T14:30:31;11.30;99.90
2647;DHT22;1333;50.958;6.770;2023-01-08T14:32:59;11.20;99.90
2647;DHT22;1333;50.958;6.770;2023-01-08T14:35:31;11.20;99.90
2647;DHT22;1333;50.958;6.770;2023-01-08T14:37:59;11.30;99.90
2647;DHT22;1333;50.958;6.770;2023-01-08T14:40:31;11.40;99.90
2647;DHT22;1333;50.958;6.770;2023-01-08T14:43:02;11.50;99.90
2647;DHT22;1333;50.958;6.770;2023-01-08T14:45:31;11.50;99.90
2647;DHT22;1333;50.958;6.770;2023-01-08T14:48:15;11.60;99.90
2647;DHT22;1333;50.958;6.770;2023-01-08T14:50:43;11.60;99.90
2647;DHT22;1333;50.958;6.770;2023-01-08T14:53:26;11.50;99.90
2647;DHT22;1333;50.958;6.770;2023-01-08T14:55:54;11.50;99.90
2647;DHT22;1333;50.958;6.770;2023-01-08T14:58:26;11.50;99.90
2647;DHT22;1333;50.958;6.770;2023-01-08T15:00:58;11.50;99.90
2647;DHT22;1333;50.958;6.770;2023-01-08T15:03:36;11.60;99.90
2647;DHT22;1333;50.958;6.770;2023-01-08T15:06:03;11.50;99.90
2647;DHT22;1333;50.958;6.770;2023-01-08T15:08:34;11.60;99.90
2647;DHT22;1333;50.958;6.770;2023-01-08T15:13:43;11.70;99.90
2647;DHT22;1333;50.958;6.770;2023-01-08T15:16:29;11.70;99.90
2647;DHT22;1333;50.958;6.770;2023-01-08T15:21:27;11.60;99.90
2647;DHT22;1333;50.958;6.770;2023-01-08T15:23:54;11.40;99.90
2647;DHT22;1333;50.958;6.770;2023-01-08T15:26:21;11.30;99.90
2647;DHT22;1333;50.958;6.770;2023-01-08T15:31:43;11.20;99.90
2647;DHT22;1333;50.958;6.770;2023-01-08T15:34:08;11.10;99.90
2647;DHT22;1333;50.958;6.770;2023-01-08T15:36:34;11.00;99.90
2647;DHT22;1333;50.958;6.770;2023-01-08T15:38:59;10.90;99.90
2647;DHT22;1333;50.958;6.770;2023-01-08T15:41:32;10.80;99.90
2647;DHT22;1333;50.958;6.770;2023-01-08T15:44:16;10.70;99.90
2647;DHT22;1333;50.958;6.770;2023-01-08T15:46:41;10.50;99.90
2647;DHT22;1333;50.958;6.770;2023-01-08T15:49:07;10.40;99.90
2647;DHT22;1333;50.958;6.770;2023-01-08T15:51:33;10.30;99.90
2647;DHT22;1333;50.958;6.770;2023-01-08T15:54:01;10.10;99.90
2647;DHT22;1333;50.958;6.770;2023-01-08T15:56:27;10.10;99.90
2647;DHT22;1333;50.958;6.770;2023-01-08T15:58:52;10.00;99.90
2647;DHT22;1333;50.958;6.770;2023-01-08T16:01:18;9.90;99.90
2647;DHT22;1333;50.958;6.770;2023-01-08T16:03:44;9.80;99.90
2647;DHT22;1333;50.958;6.770;2023-01-08T16:06:09;9.80;99.90
2647;DHT22;1333;50.958;6.770;2023-01-08T16:08:35;9.60;99.90
2647;DHT22;1333;50.958;6.770;2023-01-08T16:11:01;9.50;99.90
2647;DHT22;1333;50.958;6.770;2023-01-08T16:13:26;9.50;99.90
2647;DHT22;1333;50.958;6.770;2023-01-08T16:15:52;9.40;99.90
2647;DHT22;1333;50.958;6.770;2023-01-08T16:18:19;9.40;99.90
2647;DHT22;1333;50.958;6.770;2023-01-08T16:20:45;9.30;99.90
2647;DHT22;1333;50.958;6.770;2023-01-08T16:23:10;9.30;99.90
2647;DHT22;1333;50.958;6.770;2023-01-08T16:25:38;9.20;99.90
2647;DHT22;1333;50.958;6.770;2023-01-08T16:28:03;9.20;99.90
2647;DHT22;1333;50.958;6.770;2023-01-08T16:30:29;9.10;99.90
2647;DHT22;1333;50.958;6.770;2023-01-08T16:32:54;9.10;99.90
2647;DHT22;1333;50.958;6.770;2023-01-08T16:35:20;9.00;99.90
2647;DHT22;1333;50.958;6.770;2023-01-08T16:37:46;9.00;99.90
2647;DHT22;1333;50.958;6.770;2023-01-08T16:40:13;9.00;99.90
2647;DHT22;1333;50.958;6.770;2023-01-08T16:42:38;9.00;99.90
2647;DHT22;1333;50.958;6.770;2023-01-08T16:45:05;9.00;99.90
2647;DHT22;1333;50.958;6.770;2023-01-08T16:47:31;9.00;99.90
2647;DHT22;1333;50.958;6.770;2023-01-08T16:50:00;9.00;99.90
2647;DHT22;1333;50.958;6.770;2023-01-08T16:52:26;9.00;99.90
2647;DHT22;1333;50.958;6.770;2023-01-08T16:54:51;8.90;99.90
2647;DHT22;1333;50.958;6.770;2023-01-08T16:57:17;8.80;99.90
2647;DHT22;1333;50.958;6.770;2023-01-08T16:59:42;8.90;99.90
2647;DHT22;1333;50.958;6.770;2023-01-08T17:02:09;8.80;99.90
2647;DHT22;1333;50.958;6.770;2023-01-08T17:04:34;8.80;99.90
2647;DHT22;1333;50.958;6.770;2023-01-08T17:07:00;8.70;99.90
2647;DHT22;1333;50.958;6.770;2023-01-08T17:09:27;8.70;99.90
2647;DHT22;1333;50.958;6.770;2023-01-08T17:11:52;8.70;99.90
2647;DHT22;1333;50.958;6.770;2023-01-08T17:14:18;8.70;99.90
2647;DHT22;1333;50.958;6.770;2023-01-08T17:16:44;8.60;99.90
2647;DHT22;1333;50.958;6.770;2023-01-08T17:19:11;8.60;99.90
2647;DHT22;1333;50.958;6.770;2023-01-08T17:21:37;8.70;99.90
2647;DHT22;1333;50.958;6.770;2023-01-08T17:24:03;8.70;99.90
2647;DHT22;1333;50.958;6.770;2023-01-08T17:26:29;8.80;99.90
2647;DHT22;1333;50.958;6.770;2023-01-08T17:28:54;8.80;99.90
2647;DHT22;1333;50.958;6.770;2023-01-08T17:31:20;8.80;99.90
2647;DHT22;1333;50.958;6.770;2023-01-08T17:33:47;8.80;99.90